Time;durP1;ratioP1;P1;durP2;ratioP2;P2;SDS_P1;SDS_P2;PMS_P1;PMS_P2;Temp;Humidity;BMP_temperature;BMP_pressure;BME280_temperature;BME280_humidity;BME280_pressure;Samples;Min_cycle;Max_cycle;Signal;HPM_P1;HPM_P2
2022/06/27 00:00:49;;;;;;;;;;;;;;;22.24;56.07;100481.31;4969219;28;6784;-77
2022/06/27 00:03:14;;;;;;;;;;;;;;;22.28;55.51;100480.44;5002828;28;7378;-76
2022/06/27 00:05:41;;;;;;;;;;;;;;;22.31;55.66;100480.47;5001325;28;6938;-77
2022/06/27 00:08:06;;;;;;;;;;;;;;;22.34;55.92;100472.63;4969975;28;6993;-77
2022/06/27 00:10:33;;;;;;;;;;;;;;;22.37;55.43;100471.75;4988802;28;7181;-76
2022/06/27 00:12:58;;;;;;;;;;;;;;;22.39;55.28;100469.13;4988970;28;7272;-76
2022/06/27 00:15:24;;;;;;;;;;;;;;;22.40;55.35;100460.44;4980671;28;6958;-76
2022/06/27 00:17:50;;;;;;;;;;;;;;;22.43;55.36;100460.44;5006847;28;6784;-76
2022/06/27 00:20:16;;;;;;;;;;;;;;;22.44;55.42;100472.63;4982213;28;6964;-76
2022/06/27 00:22:42;;;;;;;;;;;;;;;22.47;55.08;100475.22;4987394;28;6958;-76
2022/06/27 00:25:10;;;;;;;;;;;;;;;22.49;55.07;100468.28;4989888;28;6788;-76
2022/06/27 00:27:36;;;;;;;;;;;;;;;22.49;55.02;100468.28;4966977;28;6796;-76
2022/06/27 00:30:04;;;;;;;;;;;;;;;22.49;54.76;100483.97;5001625;28;6968;-76
2022/06/27 00:32:30;;;;;;;;;;;;;;;22.51;55.02;100477.03;4989550;28;7332;-76
2022/06/27 00:34:55;;;;;;;;;;;;;;;22.53;54.76;100462.22;4967539;28;6954;-76
2022/06/27 00:37:21;;;;;;;;;;;;;;;22.53;54.60;100466.56;4991105;28;6943;-77
2022/06/27 00:39:47;;;;;;;;;;;;;;;22.49;54.50;100470.91;4989530;28;8361;-76
2022/06/27 00:42:12;;;;;;;;;;;;;;;;;;5005232;28;6792;-76
2022/06/27 00:44:41;;;;;;;;;;;;;;;22.42;54.70;100490.91;4968263;28;6959;-76
2022/06/27 00:47:11;;;;;;;;;;;;;;;22.41;54.89;100483.94;4996025;28;6883;-76
2022/06/27 00:49:37;;;;;;;;;;;;;;;22.41;54.65;100493.53;4957459;28;7251;-76
2022/06/27 00:52:07;;;;;;;;;;;;;;;22.43;54.60;100507.44;4984215;28;6986;-76
2022/06/27 00:54:35;;;;;;;;;;;;;;;22.41;54.72;100502.22;4967651;28;6975;-76
2022/06/27 00:57:01;;;;;;;;;;;;;;;22.40;55.09;100491.75;4973718;28;6991;-76
2022/06/27 00:59:27;;;;;;;;;;;;;;;22.41;54.74;100498.75;4977704;28;6943;-76
2022/06/27 01:01:52;;;;;;;;;;;;;;;22.42;54.66;100510.94;4982688;28;6780;-76
2022/06/27 01:04:18;;;;;;;;;;;;;;;22.44;54.94;100509.19;4971538;28;7147;-77
2022/06/27 01:06:44;;;;;;;;;;;;;;;22.43;54.59;100497.84;5004766;28;6800;-76
2022/06/27 01:09:10;;;;;;;;;;;;;;;22.45;54.75;100474.38;4963299;28;6764;-76
2022/06/27 01:11:35;;;;;;;;;;;;;;;22.43;54.89;100473.50;4968246;28;6784;-76
2022/06/27 01:14:04;;;;;;;;;;;;;;;22.43;54.78;100483.94;5003766;28;6788;-76
2022/06/27 01:16:30;;;;;;;;;;;;;;;22.40;54.12;100484.81;4988297;28;6871;-76
2022/06/27 01:18:56;;;;;;;;;;;;;;;22.40;54.02;100484.81;4949037;28;6983;-76
2022/06/27 01:21:24;;;;;;;;;;;;;;;22.40;54.04;100470.88;4984860;28;6962;-76
2022/06/27 01:23:51;;;;;;;;;;;;;;;22.39;53.85;100458.69;4987230;28;6994;-76
2022/06/27 01:26:19;;;;;;;;;;;;;;;22.39;53.75;100459.56;4984238;28;6969;-76
2022/06/27 01:28:45;;;;;;;;;;;;;;;22.39;53.87;100461.31;4971137;28;6876;-76
2022/06/27 01:31:12;;;;;;;;;;;;;;;22.38;53.70;100460.44;4965785;28;8362;-76
2022/06/27 01:33:39;;;;;;;;;;;;;;;22.38;53.76;100464.78;4980714;28;6992;-76
2022/06/27 01:38:52;;;;;;;;;;;;;;;22.39;53.50;100464.78;4987447;28;6848;-76
2022/06/27 01:41:17;;;;;;;;;;;;;;;22.41;53.33;100456.97;5004622;28;6987;-76
2022/06/27 01:43:45;;;;;;;;;;;;;;;22.44;53.63;100449.97;4985914;28;6959;-76
2022/06/27 01:46:12;;;;;;;;;;;;;;;22.45;53.50;100437.81;4968272;28;7203;-76
2022/06/27 01:48:39;;;;;;;;;;;;;;;22.45;53.29;100433.47;4979843;28;7986;-76
2022/06/27 01:51:08;;;;;;;;;;;;;;;;;;4980442;28;7129;-76
2022/06/27 01:53:34;;;;;;;;;;;;;;;22.48;53.02;100429.97;4970732;28;6988;-76
2022/06/27 01:56:01;;;;;;;;;;;;;;;22.48;52.99;100419.53;4956279;28;6973;-76
2022/06/27 01:58:26;;;;;;;;;;;;;;;22.48;52.97;100415.19;4963095;28;10046;-76
2022/06/27 02:00:52;;;;;;;;;;;;;;;22.50;53.21;100417.81;4999151;28;6971;-76
2022/06/27 02:03:18;;;;;;;;;;;;;;;22.50;53.04;100422.19;4986326;28;7741;-76
2022/06/27 02:05:45;;;;;;;;;;;;;;;22.50;52.93;100419.56;5004451;28;6760;-76
2022/06/27 02:08:13;;;;;;;;;;;;;;;22.45;53.09;100407.38;4971212;28;7650;-76
2022/06/27 02:10:38;;;;;;;;;;;;;;;22.44;52.96;100399.53;4983274;28;7062;-76
2022/06/27 02:13:04;;;;;;;;;;;;;;;22.44;53.20;100400.38;4998099;28;6968;-76
2022/06/27 02:15:31;;;;;;;;;;;;;;;22.46;53.32;100397.78;4971565;28;6796;-76
2022/06/27 02:17:57;;;;;;;;;;;;;;;22.46;53.38;100395.16;4961656;28;7199;-76
2022/06/27 02:20:23;;;;;;;;;;;;;;;22.49;53.41;100397.78;4987673;28;6768;-76
2022/06/27 02:22:49;;;;;;;;;;;;;;;22.48;53.52;100393.41;4970724;28;7389;-76
2022/06/27 02:25:15;;;;;;;;;;;;;;;22.48;53.68;100390.78;4987835;28;6823;-76
2022/06/27 02:27:42;;;;;;;;;;;;;;;22.46;53.02;100389.94;4963761;28;7080;-76
2022/06/27 02:30:09;;;;;;;;;;;;;;;22.43;52.96;100385.59;4984872;28;6983;-79
2022/06/27 02:32:36;;;;;;;;;;;;;;;22.44;53.01;100389.94;4956069;28;7014;-78
2022/06/27 02:35:01;;;;;;;;;;;;;;;22.43;53.03;100379.50;4961389;28;7448;-79
2022/06/27 02:37:30;;;;;;;;;;;;;;;22.43;52.94;100377.75;4993634;28;7011;-79
2022/06/27 02:39:57;;;;;;;;;;;;;;;22.41;52.91;100376.03;4963293;28;7841;-79
2022/06/27 02:42:25;;;;;;;;;;;;;;;22.40;53.29;100364.72;4982125;28;7268;-79
2022/06/27 02:44:51;;;;;;;;;;;;;;;22.40;53.08;100371.66;4966850;28;6869;-79
2022/06/27 02:47:21;;;;;;;;;;;;;;;22.39;53.21;100364.69;4976456;28;7045;-78
2022/06/27 02:49:47;;;;;;;;;;;;;;;22.39;53.56;100367.31;4984227;28;7199;-79
2022/06/27 02:52:28;;;;;;;;;;;;;;;22.39;53.16;100356.88;4963564;28;6935;-79
2022/06/27 02:55:07;;;;;;;;;;;;;;;22.39;53.35;100359.47;4960062;28;7058;-79
2022/06/27 02:57:50;;;;;;;;;;;;;;;22.34;53.30;100352.53;4967337;28;7359;-79
2022/06/27 03:00:17;;;;;;;;;;;;;;;22.30;53.71;100350.78;4962145;28;8774;-79
2022/06/27 03:02:45;;;;;;;;;;;;;;;22.25;53.74;100347.31;4981167;28;6819;-78
2022/06/27 03:05:11;;;;;;;;;;;;;;;22.20;53.57;100354.28;4947803;28;7129;-79
2022/06/27 03:07:42;;;;;;;;;;;;;;;22.15;53.42;100345.59;4963849;28;6784;-79
2022/06/27 03:10:10;;;;;;;;;;;;;;;22.12;53.99;100340.38;4970680;28;6828;-79
2022/06/27 03:12:36;;;;;;;;;;;;;;;22.08;54.10;100341.25;4963543;28;8729;-79
2022/06/27 03:15:02;;;;;;;;;;;;;;;22.06;54.25;100346.44;4960933;28;7208;-79
2022/06/27 03:17:28;;;;;;;;;;;;;;;22.03;54.16;100344.75;4953585;28;6971;-79
2022/06/27 03:19:53;;;;;;;;;;;;;;;22.04;54.48;100338.66;4990126;28;8923;-79
2022/06/27 03:22:19;;;;;;;;;;;;;;;22.04;54.54;100337.75;4998039;28;7411;-78
2022/06/27 03:24:46;;;;;;;;;;;;;;;22.04;54.76;100358.63;4986191;28;6956;-78
2022/06/27 03:27:11;;;;;;;;;;;;;;;22.03;54.36;100368.22;4959052;28;6788;-79
2022/06/27 03:29:37;;;;;;;;;;;;;;;22.03;54.51;100362.13;4952253;28;6783;-79
2022/06/27 03:32:04;;;;;;;;;;;;;;;22.01;54.90;100359.50;4980980;28;7277;-79
2022/06/27 03:34:30;;;;;;;;;;;;;;;22.02;55.10;100368.22;4979729;28;6989;-78
2022/06/27 03:36:57;;;;;;;;;;;;;;;22.00;54.98;100369.97;4968205;28;9091;-78
2022/06/27 03:39:23;;;;;;;;;;;;;;;22.02;55.05;100376.94;4981603;28;8922;-79
2022/06/27 03:41:50;;;;;;;;;;;;;;;22.02;54.94;100383.88;4950969;28;8488;-79
2022/06/27 03:44:15;;;;;;;;;;;;;;;22.02;55.18;100383.88;4971225;28;6780;-78
2022/06/27 03:46:41;;;;;;;;;;;;;;;22.01;54.91;100383.00;4984045;28;8469;-78
2022/06/27 03:51:52;;;;;;;;;;;;;;;21.95;55.19;100383.00;4966698;28;6804;-79
2022/06/27 03:54:18;;;;;;;;;;;;;;;21.91;55.10;100395.16;4976846;28;7138;-78
2022/06/27 03:56:43;;;;;;;;;;;;;;;21.88;55.30;100387.34;4978526;28;7185;-78
2022/06/27 03:59:09;;;;;;;;;;;;;;;21.85;55.46;100387.31;4963352;28;7021;-78
2022/06/27 04:01:35;;;;;;;;;;;;;;;21.83;55.40;100383.00;4981309;28;6940;-78
2022/06/27 04:04:02;;;;;;;;;;;;;;;21.88;55.24;100379.53;5001984;28;6764;-78
2022/06/27 04:06:28;;;;;;;;;;;;;;;21.87;55.44;100372.53;4960628;28;6808;-78
2022/06/27 04:08:54;;;;;;;;;;;;;;;21.89;55.46;100376.03;4996496;28;8502;-79
2022/06/27 04:11:20;;;;;;;;;;;;;;;21.91;55.74;100370.81;4967063;28;7904;-78
2022/06/27 04:13:46;;;;;;;;;;;;;;;21.94;55.60;100378.66;4967122;28;6792;-78
2022/06/27 04:16:12;;;;;;;;;;;;;;;21.97;55.46;100393.41;4996244;28;7264;-80
2022/06/27 04:18:38;;;;;;;;;;;;;;;21.99;55.43;100391.72;4967714;28;7210;-79
2022/06/27 04:21:04;;;;;;;;;;;;;;;21.98;55.50;100387.38;4997181;28;7337;-79
2022/06/27 04:23:29;;;;;;;;;;;;;;;21.98;55.72;100388.22;4985411;28;7439;-79
2022/06/27 04:25:55;;;;;;;;;;;;;;;22.01;55.96;100383.00;4989138;28;6943;-79
2022/06/27 04:28:21;;;;;;;;;;;;;;;22.04;56.18;100388.22;4971406;28;6784;-79
2022/06/27 04:30:47;;;;;;;;;;;;;;;22.10;56.07;100383.88;4986985;28;7005;-79
2022/06/27 04:33:14;;;;;;;;;;;;;;;22.16;56.35;100383.88;4963621;28;8259;-79
2022/06/27 04:35:41;;;;;;;;;;;;;;;22.23;56.18;100367.34;4965329;28;6796;-79
2022/06/27 04:38:07;;;;;;;;;;;;;;;22.32;56.07;100367.34;4971061;28;7157;-79
2022/06/27 04:40:33;;;;;;;;;;;;;;;22.37;55.63;100361.22;4965772;28;7042;-78
2022/06/27 04:42:59;;;;;;;;;;;;;;;22.43;55.51;100356.00;4972115;28;7118;-78
2022/06/27 04:45:25;;;;;;;;;;;;;;;;;;4933988;28;8451;-78
2022/06/27 04:47:52;;;;;;;;;;;;;;;22.51;55.90;100343.84;4962806;28;6772;-80
2022/06/27 04:50:21;;;;;;;;;;;;;;;22.58;55.82;100340.31;4964933;28;7070;-80
2022/06/27 04:52:49;;;;;;;;;;;;;;;22.64;55.64;100333.34;4936805;28;6983;-80
2022/06/27 04:55:15;;;;;;;;;;;;;;;22.71;55.95;100335.94;4938786;28;8576;-80
2022/06/27 04:57:43;;;;;;;;;;;;;;;22.83;55.81;100335.03;4981601;28;7226;-80
2022/06/27 05:00:13;;;;;;;;;;;;;;;22.95;55.15;100328.00;4983458;28;7259;-80
2022/06/27 05:02:40;;;;;;;;;;;;;;;23.02;55.21;100319.28;4962663;28;11468;-80
2022/06/27 05:05:07;;;;;;;;;;;;;;;23.09;55.02;100305.31;4961768;28;6991;-80
2022/06/27 05:07:33;;;;;;;;;;;;;;;23.15;54.90;100292.19;4951619;28;7191;-80
2022/06/27 05:09:59;;;;;;;;;;;;;;;23.17;54.52;100297.41;4969339;28;6953;-80
2022/06/27 05:12:26;;;;;;;;;;;;;;;23.12;54.12;100289.59;4979128;28;8447;-79
2022/06/27 05:14:54;;;;;;;;;;;;;;;23.12;54.16;100284.38;4952976;28;8812;-80
2022/06/27 05:17:21;;;;;;;;;;;;;;;23.14;54.36;100306.13;4953093;28;6796;-79
2022/06/27 05:19:47;;;;;;;;;;;;;;;23.13;54.57;100335.75;4940028;28;7059;-80
2022/06/27 05:22:13;;;;;;;;;;;;;;;23.11;54.14;100334.91;4965359;28;7181;-80
2022/06/27 05:24:40;;;;;;;;;;;;;;;23.07;54.29;100338.41;4964630;28;6996;-80
2022/06/27 05:27:05;;;;;;;;;;;;;;;23.03;54.02;100352.38;4966843;28;7241;-80
2022/06/27 05:29:32;;;;;;;;;;;;;;;22.99;54.44;100348.03;4982443;28;7138;-80
2022/06/27 05:31:59;;;;;;;;;;;;;;;22.94;54.48;100357.63;4935223;28;7065;-80
2022/06/27 05:34:25;;;;;;;;;;;;;;;22.94;54.92;100365.47;4953613;28;8329;-80
2022/06/27 05:36:50;;;;;;;;;;;;;;;22.97;55.10;100362.84;4978249;28;7210;-80
2022/06/27 05:39:16;;;;;;;;;;;;;;;23.02;55.18;100364.56;4954396;28;6788;-80
2022/06/27 05:41:43;;;;;;;;;;;;;;;23.08;54.83;100362.81;4961944;28;6930;-80
2022/06/27 05:44:09;;;;;;;;;;;;;;;23.13;55.36;100376.69;4984039;28;7534;-80
2022/06/27 05:46:37;;;;;;;;;;;;;;;23.18;55.06;100393.25;4967135;28;6945;-80
2022/06/27 05:49:03;;;;;;;;;;;;;;;23.26;54.96;100406.28;4955778;28;6872;-80
2022/06/27 05:51:29;;;;;;;;;;;;;;;23.31;54.80;100409.78;4958576;28;7002;-80
2022/06/27 05:54:00;;;;;;;;;;;;;;;23.37;54.54;100403.66;4959189;28;6828;-80
2022/06/27 05:56:28;;;;;;;;;;;;;;;23.43;54.63;100403.63;4974964;28;7113;-80
2022/06/27 05:58:55;;;;;;;;;;;;;;;23.50;54.49;100405.31;4982094;28;7604;-80
2022/06/27 06:01:22;;;;;;;;;;;;;;;23.58;54.72;100408.75;4972781;28;7245;-80
2022/06/27 06:03:48;;;;;;;;;;;;;;;23.66;54.23;100407.84;4981530;28;7281;-80
2022/06/27 06:06:15;;;;;;;;;;;;;;;23.74;54.32;100416.53;4953677;28;6804;-80
2022/06/27 06:08:43;;;;;;;;;;;;;;;23.80;53.90;100426.09;4973639;28;6987;-80
2022/06/27 06:11:09;;;;;;;;;;;;;;;23.88;53.90;100446.97;4979159;28;6965;-80
2022/06/27 06:13:36;;;;;;;;;;;;;;;23.94;54.52;100454.78;4938218;28;7242;-79
2022/06/27 06:16:03;;;;;;;;;;;;;;;24.05;54.16;100473.94;4964661;28;8534;-79
2022/06/27 06:18:33;;;;;;;;;;;;;;;24.16;53.84;100486.06;4976016;28;6962;-79
2022/06/27 06:20:59;;;;;;;;;;;;;;;24.24;54.14;100487.78;4976151;28;6980;-79
2022/06/27 06:23:25;;;;;;;;;;;;;;;24.32;53.92;100492.94;4951421;28;6797;-79
2022/06/27 06:25:52;;;;;;;;;;;;;;;24.40;53.73;100478.03;4978689;28;6991;-79
2022/06/27 06:28:18;;;;;;;;;;;;;;;24.45;53.15;100487.59;4978742;28;7345;-80
2022/06/27 06:30:44;;;;;;;;;;;;;;;24.49;53.91;100486.72;4946684;28;6804;-80
2022/06/27 06:33:10;;;;;;;;;;;;;;;24.51;53.23;100470.06;4963542;28;7228;-79
2022/06/27 06:35:36;;;;;;;;;;;;;;;24.60;53.83;100473.50;4953766;28;8382;-79
2022/06/27 06:38:04;;;;;;;;;;;;;;;24.63;53.09;100455.16;4946996;28;7252;-79
2022/06/27 06:40:30;;;;;;;;;;;;;;;24.67;53.12;100447.25;4965932;28;6986;-79
2022/06/27 06:42:59;;;;;;;;;;;;;;;24.68;52.12;100433.25;4976328;28;6792;-79
2022/06/27 06:45:24;;;;;;;;;;;;;;;24.67;52.60;100417.53;4942637;28;7979;-80
2022/06/27 06:47:51;;;;;;;;;;;;;;;24.64;52.57;100414.97;4966644;28;6780;-79
2022/06/27 06:50:18;;;;;;;;;;;;;;;24.63;52.44;100394.91;4981460;28;8321;-79
2022/06/27 06:52:52;;;;;;;;;;;;;;;24.65;52.75;100382.63;4980219;28;7007;-79
2022/06/27 06:55:21;;;;;;;;;;;;;;;24.66;52.12;100384.38;4940456;28;7325;-79
2022/06/27 06:57:49;;;;;;;;;;;;;;;24.64;52.22;100386.16;4978744;28;6812;-79
2022/06/27 07:00:16;;;;;;;;;;;;;;;24.59;51.60;100403.66;4959306;28;7020;-80
2022/06/27 07:02:43;;;;;;;;;;;;;;;24.57;51.81;100426.38;4949163;28;10171;-80
2022/06/27 07:05:12;;;;;;;;;;;;;;;24.57;51.62;100434.25;4978497;28;6985;-80
2022/06/27 07:07:44;;;;;;;;;;;;;;;24.64;52.63;100420.22;4955964;28;7015;-80
2022/06/27 07:10:13;;;;;;;;;;;;;;;24.70;51.74;100407.03;4939055;28;7314;-79
2022/06/27 07:12:40;;;;;;;;;;;;;;;24.77;51.86;100403.47;4982807;28;6796;-80
2022/06/27 07:15:09;;;;;;;;;;;;;;;24.89;52.18;100418.22;4937904;28;6800;-79
2022/06/27 07:17:48;;;;;;;;;;;;;;;25.10;52.04;100437.19;4963023;28;7015;-79
2022/06/27 07:20:20;;;;;;;;;;;;;;;25.33;51.68;100443.91;4961119;28;6980;-78
2022/06/27 07:22:48;;;;;;;;;;;;;;;25.62;52.06;100429.56;4952185;28;7236;-78
2022/06/27 07:25:14;;;;;;;;;;;;;;;25.97;51.72;100429.94;4974094;28;6812;-79
2022/06/27 07:27:42;;;;;;;;;;;;;;;26.31;51.06;100446.03;4953118;28;8607;-79
2022/06/27 07:30:10;;;;;;;;;;;;;;;26.58;50.43;100445.59;4978304;28;6820;-79
2022/06/27 07:32:39;;;;;;;;;;;;;;;26.79;49.83;100441.69;4971158;28;7488;-79
2022/06/27 07:35:09;;;;;;;;;;;;;;;26.91;48.70;100445.88;4951394;28;7269;-79
2022/06/27 07:37:39;;;;;;;;;;;;;;;27.00;48.22;100450.13;4970529;28;7066;-79
2022/06/27 07:40:07;;;;;;;;;;;;;;;27.00;47.50;100450.97;4978858;28;6999;-78
2022/06/27 07:42:35;;;;;;;;;;;;;;;26.93;46.93;100451.97;4982425;28;6876;-79
2022/06/27 07:45:01;;;;;;;;;;;;;;;26.88;47.13;100464.38;4953293;28;6804;-79
2022/06/27 07:47:28;;;;;;;;;;;;;;;26.79;47.03;100470.59;4979262;28;6784;-79
2022/06/27 07:49:53;;;;;;;;;;;;;;;26.66;46.64;100474.38;4950915;28;6796;-79
2022/06/27 07:52:19;;;;;;;;;;;;;;;26.53;46.87;100481.59;4938216;28;8043;-79
2022/06/27 07:54:45;;;;;;;;;;;;;;;26.43;47.18;100480.91;4969289;28;9942;-79
2022/06/27 07:57:10;;;;;;;;;;;;;;;26.36;47.47;100477.47;4952651;28;6927;-79
2022/06/27 07:59:38;;;;;;;;;;;;;;;26.34;47.25;100484.53;4936667;28;6960;-79
2022/06/27 08:02:04;;;;;;;;;;;;;;;26.36;47.53;100485.38;4953913;28;6993;-79
2022/06/27 08:04:30;;;;;;;;;;;;;;;26.37;47.83;100481.00;4933795;28;6958;-79
2022/06/27 08:06:56;;;;;;;;;;;;;;;26.37;47.66;100462.59;4947014;28;6784;-79
2022/06/27 08:09:22;;;;;;;;;;;;;;;26.42;47.84;100464.25;4951754;28;6984;-79
2022/06/27 08:11:49;;;;;;;;;;;;;;;26.41;47.43;100475.66;4967347;28;7416;-79
2022/06/27 08:14:17;;;;;;;;;;;;;;;26.33;47.52;100485.44;4971519;28;7159;-78
2022/06/27 08:16:49;;;;;;;;;;;;;;;26.27;47.71;100503.91;4936949;28;6983;-78
2022/06/27 08:19:15;;;;;;;;;;;;;;;26.20;47.90;100501.38;4961076;28;6962;-79
2022/06/27 08:21:43;;;;;;;;;;;;;;;26.15;47.66;100503.16;4977977;28;7185;-78
2022/06/27 08:24:16;;;;;;;;;;;;;;;26.12;47.83;100513.72;4977808;28;7067;-78
2022/06/27 08:26:44;;;;;;;;;;;;;;;26.10;47.80;100531.28;4936101;28;6987;-78
2022/06/27 08:29:11;;;;;;;;;;;;;;;26.09;48.06;100523.41;4968226;28;8464;-79
2022/06/27 08:31:41;;;;;;;;;;;;;;;26.05;47.76;100512.97;4960882;28;6968;-79
2022/06/27 08:34:08;;;;;;;;;;;;;;;26.04;47.96;100528.72;4966951;28;7182;-79
2022/06/27 08:36:36;;;;;;;;;;;;;;;26.01;48.10;100536.66;4970557;28;6993;-79
2022/06/27 08:39:11;;;;;;;;;;;;;;;25.99;48.61;100531.41;4968394;28;7247;-79
2022/06/27 08:41:37;;;;;;;;;;;;;;;26.04;48.71;100524.34;4937438;28;8615;-78
2022/06/27 08:44:06;;;;;;;;;;;;;;;26.14;48.51;100527.69;4958832;28;6796;-78
2022/06/27 08:46:33;;;;;;;;;;;;;;;26.26;48.21;100523.19;4937676;28;8492;-79
2022/06/27 08:48:58;;;;;;;;;;;;;;;26.38;48.05;100519.50;4966805;28;7027;-78
2022/06/27 08:51:26;;;;;;;;;;;;;;;26.50;48.01;100524.56;4979204;28;7871;-79
2022/06/27 08:53:54;;;;;;;;;;;;;;;26.58;47.73;100529.69;4976353;28;6804;-79
2022/06/27 08:56:22;;;;;;;;;;;;;;;26.64;47.31;100537.47;4974470;28;9767;-78
2022/06/27 08:58:48;;;;;;;;;;;;;;;26.71;47.12;100549.63;4965643;28;7272;-78
2022/06/27 09:01:18;;;;;;;;;;;;;;;26.78;46.84;100553.00;4950173;28;7273;-79
2022/06/27 09:04:06;;;;;;;;;;;;;;;26.81;45.98;100544.19;4963289;28;6956;-79
2022/06/27 09:06:55;;;;;;;;;;;;;;;26.75;45.70;100555.69;4952944;28;6808;-79
2022/06/27 09:09:24;;;;;;;;;;;;;;;26.69;45.55;100547.91;4951496;28;7272;-79
2022/06/27 09:11:51;;;;;;;;;;;;;;;26.66;45.96;100545.34;4960459;28;7012;-79
2022/06/27 09:14:37;;;;;;;;;;;;;;;26.62;45.52;100547.13;4963302;28;7243;-79
2022/06/27 09:17:12;;;;;;;;;;;;;;;26.59;45.78;100557.72;4961601;28;7197;-79
2022/06/27 09:19:53;;;;;;;;;;;;;;;26.58;46.20;100554.19;4952791;28;8135;-79
2022/06/27 09:22:23;;;;;;;;;;;;;;;26.56;46.17;100557.78;4958897;28;7447;-79
2022/06/27 09:25:09;;;;;;;;;;;;;;;26.53;46.05;100549.91;4947990;28;7046;-79
2022/06/27 09:27:47;;;;;;;;;;;;;;;26.51;46.13;100549.97;4981041;28;8788;-79
2022/06/27 09:30:22;;;;;;;;;;;;;;;26.51;45.89;100546.47;4962620;28;7567;-79
2022/06/27 09:32:54;;;;;;;;;;;;;;;26.48;46.35;100552.63;4964588;28;11379;-79
2022/06/27 09:35:31;;;;;;;;;;;;;;;26.50;46.53;100549.97;4977420;28;7031;-79
2022/06/27 09:38:04;;;;;;;;;;;;;;;26.50;46.53;100550.81;4961802;28;7294;-79
2022/06/27 09:40:33;;;;;;;;;;;;;;;26.57;46.41;100554.25;4943753;28;7005;-79
2022/06/27 09:43:00;;;;;;;;;;;;;;;26.62;46.55;100550.66;4951969;28;6847;-79
2022/06/27 09:45:29;;;;;;;;;;;;;;;26.69;46.49;100553.16;4972370;28;6800;-79
2022/06/27 09:48:05;;;;;;;;;;;;;;;26.73;46.32;100552.22;4957901;28;6965;-79
2022/06/27 09:50:36;;;;;;;;;;;;;;;26.76;46.10;100553.06;4951010;28;7240;-80
2022/06/27 09:53:03;;;;;;;;;;;;;;;26.81;45.64;100541.56;4966874;28;6993;-79
2022/06/27 09:55:30;;;;;;;;;;;;;;;26.82;45.33;100538.94;4956280;28;6792;-79
2022/06/27 09:57:56;;;;;;;;;;;;;;;26.82;45.27;100532.78;4938336;28;6912;-79
2022/06/27 10:00:24;;;;;;;;;;;;;;;26.80;44.86;100519.69;4947871;28;6781;-79
2022/06/27 10:02:51;;;;;;;;;;;;;;;26.78;44.97;100528.50;4958051;28;6804;-79
2022/06/27 10:05:19;;;;;;;;;;;;;;;26.82;45.28;100527.53;4945468;28;7026;-79
2022/06/27 10:08:00;;;;;;;;;;;;;;;26.91;45.26;100530.03;4951235;28;7343;-78
2022/06/27 10:10:31;;;;;;;;;;;;;;;26.99;45.02;100530.75;4943451;28;6963;-78
2022/06/27 10:13:01;;;;;;;;;;;;;;;27.07;44.65;100533.25;4958336;28;7042;-79
2022/06/27 10:15:38;;;;;;;;;;;;;;;27.16;44.55;100537.47;4972738;28;6961;-79
2022/06/27 10:18:04;;;;;;;;;;;;;;;27.31;45.27;100539.78;4955907;28;6897;-79
2022/06/27 10:20:36;;;;;;;;;;;;;;;27.65;45.17;100546.16;4961834;28;6788;-79
2022/06/27 10:23:11;;;;;;;;;;;;;;;28.19;44.97;100530.97;4960910;28;6976;-79
2022/06/27 10:25:42;;;;;;;;;;;;;;;28.81;43.81;100528.59;4958842;28;8177;-79
2022/06/27 10:28:14;;;;;;;;;;;;;;;29.24;42.46;100535.38;4940069;28;7056;-79
2022/06/27 10:31:01;;;;;;;;;;;;;;;29.51;41.55;100540.81;4945849;28;6995;-79
2022/06/27 10:33:26;;;;;;;;;;;;;;;29.64;41.56;100533.41;4936493;28;6981;-79
2022/06/27 10:35:58;;;;;;;;;;;;;;;29.76;40.91;100533.94;4966047;28;7417;-79
2022/06/27 10:38:40;;;;;;;;;;;;;;;29.78;40.70;100530.34;4958773;28;6864;-79
2022/06/27 10:41:20;;;;;;;;;;;;;;;29.85;40.59;100525.72;4978442;28;7135;-79
2022/06/27 10:43:49;;;;;;;;;;;;;;;29.92;40.09;100523.75;4954509;28;6960;-79
2022/06/27 10:46:14;;;;;;;;;;;;;;;29.92;39.58;100527.28;4980244;28;7742;-79
2022/06/27 10:48:56;;;;;;;;;;;;;;;29.85;39.04;100532.81;4952120;28;6825;-79
2022/06/27 10:51:34;;;;;;;;;;;;;;;29.75;39.46;100533.09;4982538;28;6980;-80
2022/06/27 10:54:06;;;;;;;;;;;;;;;29.75;39.92;100529.56;4980379;28;7252;-79
2022/06/27 10:56:46;;;;;;;;;;;;;;;29.84;38.98;100524.00;4982351;28;7158;-79
2022/06/27 10:59:14;;;;;;;;;;;;;;;30.04;40.04;100514.59;4983095;28;7227;-79
2022/06/27 11:02:01;;;;;;;;;;;;;;;30.32;39.08;100509.28;4962229;28;7197;-80
2022/06/27 11:04:36;;;;;;;;;;;;;;;30.66;39.05;100506.47;4964789;28;6928;-79
2022/06/27 11:07:06;;;;;;;;;;;;;;;30.93;37.51;100514.38;4956543;28;6988;-80
2022/06/27 11:09:44;;;;;;;;;;;;;;;31.04;36.44;100520.13;4954793;28;6976;-80
2022/06/27 11:12:14;;;;;;;;;;;;;;;30.98;36.83;100526.50;4972829;28;6804;-79
2022/06/27 11:15:00;;;;;;;;;;;;;;;30.92;37.40;100529.38;4969300;28;6841;-79
2022/06/27 11:17:41;;;;;;;;;;;;;;;30.84;36.47;100540.22;4953865;28;7159;-79
2022/06/27 11:20:25;;;;;;;;;;;;;;;30.69;36.57;100549.56;4939005;28;7316;-79
2022/06/27 11:23:02;;;;;;;;;;;;;;;30.59;36.87;100559.53;4954857;28;6947;-79
2022/06/27 11:25:30;;;;;;;;;;;;;;;30.51;37.11;100545.69;4984310;28;7192;-79
2022/06/27 11:33:36;;;;;;;;;;;;;;;30.45;36.81;100556.50;4976207;28;6804;-79
2022/06/27 11:36:03;;;;;;;;;;;;;;;30.57;37.34;100542.84;4949022;28;7816;-79
2022/06/27 11:38:41;;;;;;;;;;;;;;;30.69;36.81;100553.97;4936991;28;7171;-79
2022/06/27 11:41:11;;;;;;;;;;;;;;;30.73;36.12;100550.31;4984592;28;7029;-79
2022/06/27 11:43:58;;;;;;;;;;;;;;;30.67;36.47;100540.81;4952837;28;7362;-79
2022/06/27 11:46:34;;;;;;;;;;;;;;;30.56;36.59;100541.13;4947458;28;8444;-80
2022/06/27 11:49:10;;;;;;;;;;;;;;;30.53;36.64;100535.97;4959441;28;7177;-79
2022/06/27 11:51:50;;;;;;;;;;;;;;;30.58;36.98;100535.81;4952660;28;7198;-79
2022/06/27 11:54:19;;;;;;;;;;;;;;;30.79;36.86;100525.44;4955333;28;6974;-79
2022/06/27 11:56:49;;;;;;;;;;;;;;;30.96;35.84;100525.72;4956081;28;7322;-79
2022/06/27 11:59:18;;;;;;;;;;;;;;;31.19;36.53;100529.28;4935949;28;7276;-79
2022/06/27 12:02:24;;;;;;;;;;;;;;;31.68;35.63;100518.69;4939802;28;6960;-79
2022/06/27 12:05:12;;;;;;;;;;;;;;;32.18;35.22;100516.75;4939901;28;6987;-79
2022/06/27 12:07:58;;;;;;;;;;;;;;;32.81;34.66;100507.09;4949303;28;6811;-79
2022/06/27 12:10:39;;;;;;;;;;;;;;;33.50;33.27;100508.47;4966090;28;7344;-79
2022/06/27 12:13:17;;;;;;;;;;;;;;;34.32;32.52;100508.16;4946984;28;7062;-80
2022/06/27 12:15:46;;;;;;;;;;;;;;;34.70;31.39;100521.31;4953171;28;7167;-79
2022/06/27 12:18:14;;;;;;;;;;;;;;;34.68;31.07;100525.88;4948187;28;7319;-80
2022/06/27 12:20:43;;;;;;;;;;;;;;;34.41;30.58;100530.75;4956287;28;7186;-80
2022/06/27 12:23:09;;;;;;;;;;;;;;;34.13;30.86;100532.13;4967020;28;7238;-81
2022/06/27 12:25:35;;;;;;;;;;;;;;;33.87;31.27;100531.56;4955913;28;8029;-80
2022/06/27 12:28:06;;;;;;;;;;;;;;;33.56;30.95;100528.56;4966064;28;8794;-79
2022/06/27 12:30:33;;;;;;;;;;;;;;;33.15;30.46;100524.19;4953858;28;7017;-79
2022/06/27 12:32:59;;;;;;;;;;;;;;;32.79;30.77;100514.25;4951324;28;7089;-79
2022/06/27 12:35:25;;;;;;;;;;;;;;;32.48;31.24;100513.78;4944654;28;7047;-79
2022/06/27 12:37:51;;;;;;;;;;;;;;;32.30;31.25;100525.13;4977118;28;6996;-80
2022/06/27 12:40:18;;;;;;;;;;;;;;;32.11;31.86;100505.56;4954004;28;6772;-80
2022/06/27 12:42:43;;;;;;;;;;;;;;;32.08;31.69;100500.34;4946931;28;6789;-79
2022/06/27 12:45:10;;;;;;;;;;;;;;;32.24;32.26;100505.03;4960694;28;6827;-79
2022/06/27 12:47:35;;;;;;;;;;;;;;;32.52;32.31;100515.38;4950454;28;8746;-79
2022/06/27 12:50:01;;;;;;;;;;;;;;;32.76;32.05;100514.38;4977900;28;6776;-79
2022/06/27 12:52:27;;;;;;;;;;;;;;;32.77;32.08;100529.38;4953826;28;7444;-80
2022/06/27 12:54:52;;;;;;;;;;;;;;;32.79;32.18;100522.22;4955220;28;8508;-79
2022/06/27 12:57:18;;;;;;;;;;;;;;;32.75;31.82;100532.09;4935667;28;6983;-79
2022/06/27 12:59:44;;;;;;;;;;;;;;;32.68;31.92;100538.59;4978642;28;6800;-80
2022/06/27 13:02:11;;;;;;;;;;;;;;;32.46;31.97;100546.59;4975331;28;7199;-79
2022/06/27 13:04:37;;;;;;;;;;;;;;;32.17;32.02;100554.81;4976379;28;6986;-82
2022/06/27 13:07:03;;;;;;;;;;;;;;;31.91;32.25;100556.69;4977417;28;7361;-81